Time;durP1;ratioP1;P1;durP2;ratioP2;P2;SDS_P1;SDS_P2;PMS_P1;PMS_P2;Temp;Humidity;BMP_temperature;BMP_pressure;BME280_temperature;BME280_humidity;BME280_pressure;Samples;Min_cycle;Max_cycle;Signal;HPM_P1;HPM_P2
2022/09/19 00:00:27;;;;;;;0.60;0.50;;;;;;;;;;5005620;28;20521;-71
2022/09/19 00:03:13;;;;;;;0.50;0.50;;;;;;;;;;5028899;28;20488;-70
2022/09/19 00:05:58;;;;;;;1.48;0.73;;;;;;;;;;5014902;28;20052;-69
2022/09/19 00:08:45;;;;;;;0.90;0.70;;;;;;;;;;5030787;28;20115;-69
2022/09/19 00:11:30;;;;;;;0.80;0.60;;;;;;;;;;5027824;28;20080;-80
2022/09/19 00:14:20;;;;;;;2.33;0.68;;;;;;;;;;5011904;28;20030;-78
2022/09/19 00:17:07;;;;;;;0.50;0.50;;;;;;;;;;5020031;28;20117;-77
2022/09/19 00:19:52;;;;;;;0.50;0.50;;;;;;;;;;5017175;28;20533;-77
2022/09/19 00:24:45;;;;;;;0.50;0.50;;;;;;;;;;5025462;28;20033;-76
2022/09/19 00:25:43;;;;;;;1.75;0.50;;;;;;;;;;5018664;28;20665;-77
2022/09/19 00:28:30;;;;;;;0.50;0.50;;;;;;;;;;5023266;28;20112;-81
2022/09/19 00:31:19;;;;;;;0.75;0.50;;;;;;;;;;5025047;28;20384;-69
2022/09/19 00:34:09;;;;;;;0.50;0.50;;;;;;;;;;5019201;28;20084;-69
2022/09/19 00:36:54;;;;;;;0.57;0.50;;;;;;;;;;5030382;28;20060;-69
2022/09/19 00:39:40;;;;;;;1.27;0.60;;;;;;;;;;5013921;28;20484;-69
2022/09/19 00:42:26;;;;;;;0.50;0.50;;;;;;;;;;5029456;28;20089;-70
2022/09/19 00:45:13;;;;;;;0.50;0.50;;;;;;;;;;5026196;28;20493;-77
2022/09/19 00:47:59;;;;;;;0.70;0.70;;;;;;;;;;5018236;28;20025;-73
2022/09/19 00:50:45;;;;;;;0.52;0.52;;;;;;;;;;5028092;28;20374;-69
2022/09/19 00:53:31;;;;;;;0.50;0.50;;;;;;;;;;5031837;28;20022;-69
2022/09/19 00:56:18;;;;;;;0.50;0.50;;;;;;;;;;5025309;28;20055;-70
2022/09/19 00:59:03;;;;;;;2.20;0.47;;;;;;;;;;5028823;28;20188;-70
2022/09/19 01:01:50;;;;;;;1.15;0.75;;;;;;;;;;5027190;28;20091;-69
2022/09/19 01:04:36;;;;;;;0.75;0.70;;;;;;;;;;5029656;28;20033;-78
2022/09/19 01:07:38;;;;;;;0.70;0.70;;;;;;;;;;5022523;28;20032;-69
2022/09/19 01:10:42;;;;;;;0.50;0.50;;;;;;;;;;5028486;28;20527;-69
2022/09/19 01:13:38;;;;;;;0.77;0.50;;;;;;;;;;5031065;28;20010;-70
2022/09/19 01:16:34;;;;;;;1.33;0.50;;;;;;;;;;5017684;28;20117;-70
2022/09/19 01:19:19;;;;;;;0.47;0.47;;;;;;;;;;5023189;28;20087;-70
2022/09/19 01:22:10;;;;;;;0.60;0.60;;;;;;;;;;5016143;28;20098;-75
2022/09/19 01:25:09;;;;;;;1.13;0.57;;;;;;;;;;5021591;28;20079;-69
2022/09/19 01:28:08;;;;;;;3.78;0.60;;;;;;;;;;5019254;28;20018;-75
2022/09/19 01:31:18;;;;;;;0.88;0.60;;;;;;;;;;5026604;28;20025;-75
2022/09/19 01:34:06;;;;;;;2.25;0.50;;;;;;;;;;5031614;28;20040;-74
2022/09/19 01:37:02;;;;;;;0.57;0.50;;;;;;;;;;5027163;28;20067;-74
2022/09/19 01:39:49;;;;;;;1.08;0.50;;;;;;;;;;5014655;28;20080;-73
2022/09/19 01:42:35;;;;;;;0.93;0.60;;;;;;;;;;5033283;28;20029;-69
2022/09/19 01:45:28;;;;;;;0.55;0.50;;;;;;;;;;5026678;28;20025;-74
2022/09/19 01:48:18;;;;;;;1.67;0.60;;;;;;;;;;5027399;28;20028;-75
2022/09/19 01:51:06;;;;;;;0.50;0.50;;;;;;;;;;5017624;28;20033;-75
2022/09/19 01:53:51;;;;;;;0.82;0.50;;;;;;;;;;5031301;28;20025;-75
2022/09/19 01:56:50;;;;;;;2.13;0.50;;;;;;;;;;5023877;28;20028;-75
2022/09/19 01:59:54;;;;;;;0.87;0.50;;;;;;;;;;5025973;28;20060;-78
2022/09/19 02:02:56;;;;;;;1.42;0.50;;;;;;;;;;5025630;28;20516;-71
2022/09/19 02:05:50;;;;;;;2.20;0.63;;;;;;;;;;5027906;28;20531;-70
2022/09/19 02:09:05;;;;;;;0.60;0.60;;;;;;;;;;5029584;28;20495;-71
2022/09/19 02:11:52;;;;;;;1.33;0.63;;;;;;;;;;4986777;28;20071;-72
2022/09/19 02:14:40;;;;;;;0.88;0.70;;;;;;;;;;5020183;28;20488;-72
2022/09/19 02:17:31;;;;;;;2.25;0.63;;;;;;;;;;5028257;28;20121;-74
2022/09/19 02:20:25;;;;;;;1.45;1.13;;;;;;;;;;5029525;28;20092;-75
2022/09/19 02:23:18;;;;;;;1.17;0.40;;;;;;;;;;5032002;28;20026;-75
2022/09/19 02:26:05;;;;;;;1.85;0.52;;;;;;;;;;5026685;28;20033;-74
2022/09/19 02:28:54;;;;;;;0.60;0.60;;;;;;;;;;5014260;28;20434;-74
2022/09/19 02:31:39;;;;;;;2.80;0.70;;;;;;;;;;5026481;28;20507;-75
2022/09/19 02:34:25;;;;;;;15.20;0.93;;;;;;;;;;5028680;28;20025;-75
2022/09/19 02:37:30;;;;;;;0.52;0.52;;;;;;;;;;5028712;28;20514;-70
2022/09/19 02:40:25;;;;;;;0.85;0.68;;;;;;;;;;5023701;28;20040;-75
2022/09/19 02:43:40;;;;;;;0.57;0.50;;;;;;;;;;5020106;28;20346;-75
2022/09/19 02:46:33;;;;;;;1.88;0.70;;;;;;;;;;5024196;28;20033;-76
2022/09/19 02:49:30;;;;;;;0.85;0.60;;;;;;;;;;5028166;28;20094;-75
2022/09/19 02:52:21;;;;;;;0.60;0.60;;;;;;;;;;5032461;28;20022;-75
2022/09/19 02:55:13;;;;;;;0.57;0.50;;;;;;;;;;5017137;28;20040;-71
2022/09/19 02:57:59;;;;;;;0.90;0.70;;;;;;;;;;5027353;28;20042;-71
2022/09/19 03:00:51;;;;;;;4.53;1.27;;;;;;;;;;5022474;28;20032;-71
2022/09/19 03:06:49;;;;;;;0.73;0.60;;;;;;;;;;5022577;28;20065;-70
2022/09/19 03:09:35;;;;;;;1.27;0.70;;;;;;;;;;5030513;28;20022;-70
2022/09/19 03:12:25;;;;;;;1.55;1.00;;;;;;;;;;5016810;28;20034;-72
2022/09/19 03:15:11;;;;;;;0.82;0.70;;;;;;;;;;5026463;28;20033;-74
2022/09/19 03:17:57;;;;;;;0.70;0.70;;;;;;;;;;5027488;28;20489;-69
2022/09/19 03:20:48;;;;;;;1.95;0.70;;;;;;;;;;5024423;28;20380;-69
2022/09/19 03:23:39;;;;;;;1.17;0.80;;;;;;;;;;5028283;28;20345;-71
2022/09/19 03:26:30;;;;;;;1.15;0.73;;;;;;;;;;5026951;28;20022;-70
2022/09/19 03:29:16;;;;;;;1.33;0.88;;;;;;;;;;5014688;28;20100;-70
2022/09/19 03:32:02;;;;;;;2.47;1.00;;;;;;;;;;5027494;28;20036;-69
2022/09/19 03:34:47;;;;;;;5.43;1.20;;;;;;;;;;5023686;28;20060;-69
2022/09/19 03:37:33;;;;;;;2.72;0.90;;;;;;;;;;5030199;28;20120;-70
2022/09/19 03:40:22;;;;;;;2.00;0.80;;;;;;;;;;5028411;28;20017;-70
2022/09/19 03:43:07;;;;;;;2.65;0.90;;;;;;;;;;5023864;28;20030;-70
2022/09/19 03:45:53;;;;;;;2.22;0.70;;;;;;;;;;5027710;28;20586;-69
2022/09/19 03:48:40;;;;;;;2.25;0.90;;;;;;;;;;5024424;28;20024;-69
2022/09/19 03:51:25;;;;;;;2.17;1.23;;;;;;;;;;5019494;28;20021;-76
2022/09/19 03:54:11;;;;;;;1.95;0.85;;;;;;;;;;5028953;28;20056;-69
2022/09/19 03:56:57;;;;;;;1.30;0.88;;;;;;;;;;5012265;28;20021;-68
2022/09/19 03:59:42;;;;;;;2.22;0.82;;;;;;;;;;5014519;28;20548;-71
2022/09/19 04:02:29;;;;;;;2.25;0.90;;;;;;;;;;5024584;28;20022;-69
2022/09/19 04:05:15;;;;;;;2.90;1.08;;;;;;;;;;5023630;28;20033;-69
2022/09/19 04:08:01;;;;;;;3.17;1.20;;;;;;;;;;5029617;28;20025;-71
2022/09/19 04:10:47;;;;;;;4.85;1.50;;;;;;;;;;5027994;28;20388;-74
2022/09/19 04:13:33;;;;;;;4.85;0.90;;;;;;;;;;5026447;28;20037;-78
2022/09/19 04:16:18;;;;;;;2.47;1.13;;;;;;;;;;5026768;28;20445;-78
2022/09/19 04:19:10;;;;;;;3.25;1.20;;;;;;;;;;5024768;28;20120;-79
2022/09/19 04:22:01;;;;;;;2.88;1.60;;;;;;;;;;5024269;28;20101;-79
2022/09/19 04:24:47;;;;;;;5.13;1.10;;;;;;;;;;5018996;28;20025;-79
2022/09/19 04:27:33;;;;;;;2.97;0.85;;;;;;;;;;5016868;28;20365;-80
2022/09/19 04:30:24;;;;;;;4.57;1.45;;;;;;;;;;5027718;28;20073;-75
2022/09/19 04:33:11;;;;;;;4.57;1.20;;;;;;;;;;5020225;28;20049;-74
2022/09/19 04:35:59;;;;;;;4.22;1.75;;;;;;;;;;5028310;28;20029;-73
2022/09/19 04:38:46;;;;;;;3.63;1.05;;;;;;;;;;5030131;28;20496;-73
2022/09/19 04:41:33;;;;;;;6.47;1.50;;;;;;;;;;5016257;28;20480;-75
2022/09/19 04:44:27;;;;;;;2.58;1.23;;;;;;;;;;5029993;28;20123;-73
2022/09/19 04:47:14;;;;;;;2.72;1.02;;;;;;;;;;5028218;28;20040;-74
2022/09/19 04:50:00;;;;;;;3.67;1.25;;;;;;;;;;5023125;28;20021;-74
2022/09/19 04:52:45;;;;;;;3.55;1.27;;;;;;;;;;5028189;28;20064;-74
2022/09/19 04:55:31;;;;;;;8.38;1.63;;;;;;;;;;5022059;28;20026;-74
2022/09/19 04:58:17;;;;;;;5.53;1.45;;;;;;;;;;5020629;28;20033;-74
2022/09/19 05:01:02;;;;;;;4.90;1.25;;;;;;;;;;5025291;28;20484;-74
2022/09/19 05:03:48;;;;;;;3.10;1.63;;;;;;;;;;5022702;28;20026;-80
2022/09/19 05:06:33;;;;;;;6.68;3.00;;;;;;;;;;5024217;28;20041;-75
2022/09/19 05:09:22;;;;;;;7.35;1.63;;;;;;;;;;5026620;28;20030;-74
2022/09/19 05:12:09;;;;;;;3.00;1.17;;;;;;;;;;5028880;28;20525;-74
2022/09/19 05:14:55;;;;;;;5.90;1.50;;;;;;;;;;5020681;28;20030;-76
2022/09/19 05:17:41;;;;;;;4.30;0.95;;;;;;;;;;5022868;28;20069;-73
2022/09/19 05:20:26;;;;;;;6.10;1.30;;;;;;;;;;5027070;28;20071;-73
2022/09/19 05:23:13;;;;;;;5.57;1.50;;;;;;;;;;5024737;28;20145;-73
2022/09/19 05:26:02;;;;;;;4.50;1.45;;;;;;;;;;5012843;28;20030;-72
2022/09/19 05:28:49;;;;;;;4.63;1.20;;;;;;;;;;5027168;28;20067;-74
2022/09/19 05:31:36;;;;;;;4.28;1.45;;;;;;;;;;5029087;28;20026;-74
2022/09/19 05:34:22;;;;;;;10.75;1.70;;;;;;;;;;5023071;28;20025;-75
2022/09/19 05:37:08;;;;;;;2.95;1.30;;;;;;;;;;5015922;28;20018;-74
2022/09/19 05:39:54;;;;;;;3.03;1.50;;;;;;;;;;5028590;28;20060;-75
2022/09/19 05:42:40;;;;;;;5.72;1.60;;;;;;;;;;5031450;28;20029;-77
2022/09/19 05:45:26;;;;;;;6.80;1.92;;;;;;;;;;5029900;28;20259;-76
2022/09/19 05:48:12;;;;;;;4.30;1.40;;;;;;;;;;5014456;28;20492;-76
2022/09/19 05:50:57;;;;;;;3.13;1.23;;;;;;;;;;5020244;28;20032;-76
2022/09/19 05:53:52;;;;;;;6.90;2.17;;;;;;;;;;5024883;28;20025;-75
2022/09/19 05:56:38;;;;;;;9.57;1.77;;;;;;;;;;5029571;28;20536;-75
2022/09/19 05:59:23;;;;;;;8.27;2.55;;;;;;;;;;5021599;28;20044;-80
2022/09/19 06:02:10;;;;;;;2.92;1.27;;;;;;;;;;5026648;28;20030;-73
2022/09/19 06:04:55;;;;;;;6.50;1.48;;;;;;;;;;5028508;28;20032;-74
2022/09/19 06:07:41;;;;;;;4.03;1.40;;;;;;;;;;5033900;28;20029;-75
2022/09/19 06:10:27;;;;;;;5.82;1.60;;;;;;;;;;5032722;28;20112;-74
2022/09/19 06:13:14;;;;;;;5.53;1.90;;;;;;;;;;5025340;28;20022;-74
2022/09/19 06:15:59;;;;;;;10.20;1.90;;;;;;;;;;5026632;28;20018;-75
2022/09/19 06:18:45;;;;;;;4.50;1.50;;;;;;;;;;5028911;28;20439;-80
2022/09/19 06:21:31;;;;;;;13.50;3.40;;;;;;;;;;5029872;28;20031;-79
2022/09/19 06:24:17;;;;;;;5.88;1.83;;;;;;;;;;5010295;28;20026;-79
2022/09/19 06:27:02;;;;;;;3.88;1.50;;;;;;;;;;5027321;28;20404;-79
2022/09/19 06:29:48;;;;;;;7.05;1.88;;;;;;;;;;5015243;28;20029;-81
2022/09/19 06:32:36;;;;;;;3.80;1.20;;;;;;;;;;5018577;28;20034;-80
2022/09/19 06:35:23;;;;;;;5.35;1.30;;;;;;;;;;5021605;28;20104;-76
2022/09/19 06:38:09;;;;;;;7.35;1.88;;;;;;;;;;5024734;28;20044;-74
2022/09/19 06:40:54;;;;;;;3.78;1.52;;;;;;;;;;5018567;28;20433;-74
2022/09/19 06:43:40;;;;;;;10.70;1.73;;;;;;;;;;5011686;28;20488;-75
2022/09/19 06:46:26;;;;;;;6.03;1.80;;;;;;;;;;5017474;28;20026;-76
2022/09/19 06:49:11;;;;;;;8.10;2.50;;;;;;;;;;5029721;28;20079;-75
2022/09/19 06:51:57;;;;;;;4.28;1.58;;;;;;;;;;5021202;28;20026;-75
2022/09/19 06:54:42;;;;;;;6.28;1.83;;;;;;;;;;5023853;28;20022;-69
2022/09/19 06:57:28;;;;;;;5.32;1.73;;;;;;;;;;5025586;28;20077;-80
2022/09/19 07:00:14;;;;;;;13.68;3.47;;;;;;;;;;5024843;28;20030;-82
2022/09/19 07:03:01;;;;;;;4.88;1.65;;;;;;;;;;5025162;28;20249;-81
2022/09/19 07:05:47;;;;;;;5.55;1.50;;;;;;;;;;5029245;28;20017;-81
2022/09/19 07:08:32;;;;;;;6.72;1.98;;;;;;;;;;5029730;28;20386;-82
2022/09/19 07:11:18;;;;;;;8.75;2.15;;;;;;;;;;5016177;28;20117;-81
2022/09/19 07:14:04;;;;;;;5.03;1.50;;;;;;;;;;5020744;28;20068;-69
2022/09/19 07:16:49;;;;;;;5.78;1.90;;;;;;;;;;5006583;28;20021;-71
2022/09/19 07:19:35;;;;;;;8.25;1.58;;;;;;;;;;5017173;28;20079;-71
2022/09/19 07:22:21;;;;;;;7.05;1.50;;;;;;;;;;5020606;28;20036;-72
2022/09/19 07:25:07;;;;;;;10.63;2.63;;;;;;;;;;5021003;28;20022;-74
2022/09/19 07:27:53;;;;;;;5.95;1.83;;;;;;;;;;5019330;28;20517;-71
2022/09/19 07:30:40;;;;;;;8.32;2.20;;;;;;;;;;5028648;28;20022;-71
2022/09/19 07:33:25;;;;;;;5.63;2.03;;;;;;;;;;5026587;28;20033;-75
2022/09/19 07:36:11;;;;;;;3.47;1.33;;;;;;;;;;5027227;28;20057;-70
2022/09/19 07:38:56;;;;;;;5.97;2.30;;;;;;;;;;5029932;28;20424;-72
2022/09/19 07:41:42;;;;;;;10.40;2.40;;;;;;;;;;5013133;28;20077;-70
2022/09/19 07:44:28;;;;;;;5.22;1.70;;;;;;;;;;5023689;28;20492;-72
2022/09/19 07:47:28;;;;;;;11.10;2.20;;;;;;;;;;5030338;28;20037;-71
2022/09/19 07:50:16;;;;;;;8.50;1.65;;;;;;;;;;5028742;28;20504;-69
2022/09/19 07:53:02;;;;;;;13.75;2.28;;;;;;;;;;5019448;28;20116;-81
2022/09/19 07:55:52;;;;;;;10.27;1.85;;;;;;;;;;5028904;28;20419;-79
2022/09/19 07:58:37;;;;;;;7.57;2.08;;;;;;;;;;5013841;28;20469;-78
2022/09/19 08:01:23;;;;;;;7.32;2.20;;;;;;;;;;5028840;28;20072;-80
2022/09/19 08:04:08;;;;;;;8.20;2.20;;;;;;;;;;5016922;28;20082;-79
2022/09/19 08:06:54;;;;;;;10.40;3.10;;;;;;;;;;5033966;28;20029;-82
2022/09/19 08:09:39;;;;;;;6.80;2.17;;;;;;;;;;5026328;28;20497;-70
2022/09/19 08:12:25;;;;;;;10.68;1.80;;;;;;;;;;5023989;28;20026;-74
2022/09/19 08:15:15;;;;;;;9.43;2.60;;;;;;;;;;5022408;28;20102;-74
2022/09/19 08:18:01;;;;;;;9.75;2.53;;;;;;;;;;5026097;28;20396;-75
2022/09/19 08:20:48;;;;;;;7.97;1.63;;;;;;;;;;5027832;28;20037;-74
2022/09/19 08:23:33;;;;;;;14.55;3.65;;;;;;;;;;5030004;28;20535;-75
2022/09/19 08:26:19;;;;;;;9.80;2.58;;;;;;;;;;5027836;28;20034;-75
2022/09/19 08:29:05;;;;;;;6.03;2.25;;;;;;;;;;5007553;28;20377;-81
2022/09/19 08:31:51;;;;;;;11.05;3.22;;;;;;;;;;5018898;28;20049;-76
2022/09/19 08:34:37;;;;;;;11.30;3.38;;;;;;;;;;5029043;28;20048;-71
2022/09/19 08:37:22;;;;;;;14.60;3.22;;;;;;;;;;5011989;28;20056;-70
2022/09/19 08:40:15;;;;;;;20.15;6.18;;;;;;;;;;5010607;28;20033;-67
2022/09/19 08:43:04;;;;;;;15.20;2.75;;;;;;;;;;5018361;28;20067;-69
2022/09/19 08:45:59;;;;;;;13.18;3.40;;;;;;;;;;5018258;28;20136;-66
2022/09/19 08:48:47;;;;;;;9.13;2.92;;;;;;;;;;5016208;28;20040;-65
2022/09/19 08:51:51;;;;;;;10.13;2.50;;;;;;;;;;5019247;28;20095;-68
2022/09/19 08:54:42;;;;;;;12.40;2.60;;;;;;;;;;5021185;28;20040;-64
2022/09/19 08:57:31;;;;;;;10.95;2.85;;;;;;;;;;5013777;28;20051;-63
2022/09/19 09:00:18;;;;;;;10.68;2.10;;;;;;;;;;5013734;28;20055;-65
2022/09/19 09:03:05;;;;;;;12.35;2.47;;;;;;;;;;5013005;28;20026;-67
2022/09/19 09:05:57;;;;;;;11.23;2.10;;;;;;;;;;5025156;28;20059;-67
2022/09/19 09:08:48;;;;;;;11.95;2.22;;;;;;;;;;5031470;28;20021;-66
2022/09/19 09:11:49;;;;;;;12.00;2.30;;;;;;;;;;5029575;28;20087;-72
2022/09/19 09:14:50;;;;;;;12.32;3.92;;;;;;;;;;5030968;28;20080;-72
2022/09/19 09:17:38;;;;;;;8.43;2.13;;;;;;;;;;5023414;28;20029;-72
2022/09/19 09:20:24;;;;;;;8.40;2.10;;;;;;;;;;5028382;28;20021;-74
2022/09/19 09:23:23;;;;;;;7.43;1.73;;;;;;;;;;5024084;28;20037;-76
2022/09/19 09:26:13;;;;;;;11.02;2.40;;;;;;;;;;5025026;28;20033;-73
2022/09/19 09:28:59;;;;;;;;;;;;;;;;;;5028277;28;20021;-72
2022/09/19 09:31:50;;;;;;;8.43;2.78;;;;;;;;;;5015617;28;19909;-73
2022/09/19 09:34:41;;;;;;;11.02;2.85;;;;;;;;;;5021997;28;20056;-72
2022/09/19 09:37:33;;;;;;;7.45;2.13;;;;;;;;;;5031936;28;20383;-73
2022/09/19 09:43:49;;;;;;;8.48;2.35;;;;;;;;;;5011771;28;20477;-68
2022/09/19 09:46:50;;;;;;;10.80;3.05;;;;;;;;;;5031411;28;20032;-68
2022/09/19 09:49:35;;;;;;;10.40;2.60;;;;;;;;;;5021978;28;20026;-69
2022/09/19 09:52:33;;;;;;;4.82;2.20;;;;;;;;;;5017776;28;20022;-69
2022/09/19 09:58:34;;;;;;;14.15;3.03;;;;;;;;;;5015866;28;20046;-79
2022/09/19 10:04:33;;;;;;;5.90;2.53;;;;;;;;;;5017432;28;20033;-75
2022/09/19 10:07:37;;;;;;;7.38;1.92;;;;;;;;;;5029101;28;20041;-74
